sensor_id;sensor_type;location;lat;lon;timestamp;P1;durP1;ratioP1;P2;durP2;ratioP2
30299;SDS011;17110;52.602;12.998;2024-01-07T00:04:49;5.68;;;3.60;;
30299;SDS011;17110;52.602;12.998;2024-01-07T00:09:49;4.63;;;3.80;;
30299;SDS011;17110;52.602;12.998;2024-01-07T00:14:51;4.93;;;3.55;;
30299;SDS011;17110;52.602;12.998;2024-01-07T00:19:52;4.35;;;3.08;;
30299;SDS011;17110;52.602;12.998;2024-01-07T00:24:53;9.15;;;2.78;;
30299;SDS011;17110;52.602;12.998;2024-01-07T00:29:55;5.18;;;3.58;;
30299;SDS011;17110;52.602;12.998;2024-01-07T00:34:55;4.97;;;3.10;;
30299;SDS011;17110;52.602;12.998;2024-01-07T00:39:56;6.65;;;2.75;;
30299;SDS011;17110;52.602;12.998;2024-01-07T00:44:58;5.05;;;2.88;;
30299;SDS011;17110;52.602;12.998;2024-01-07T00:49:59;3.75;;;2.70;;
30299;SDS011;17110;52.602;12.998;2024-01-07T00:54:59;4.10;;;2.72;;
30299;SDS011;17110;52.602;12.998;2024-01-07T01:00:04;3.95;;;2.88;;
30299;SDS011;17110;52.602;12.998;2024-01-07T01:05:05;3.58;;;2.42;;
30299;SDS011;17110;52.602;12.998;2024-01-07T01:10:07;4.30;;;2.95;;
30299;SDS011;17110;52.602;12.998;2024-01-07T01:15:10;4.15;;;2.53;;
30299;SDS011;17110;52.602;12.998;2024-01-07T01:20:11;3.72;;;2.67;;
30299;SDS011;17110;52.602;12.998;2024-01-07T01:25:11;2.88;;;2.53;;
30299;SDS011;17110;52.602;12.998;2024-01-07T01:30:14;5.10;;;2.67;;
30299;SDS011;17110;52.602;12.998;2024-01-07T01:35:14;3.08;;;2.53;;
30299;SDS011;17110;52.602;12.998;2024-01-07T01:40:16;4.75;;;3.08;;
30299;SDS011;17110;52.602;12.998;2024-01-07T01:45:18;4.82;;;3.50;;
30299;SDS011;17110;52.602;12.998;2024-01-07T01:50:19;5.65;;;3.13;;
30299;SDS011;17110;52.602;12.998;2024-01-07T01:55:20;4.28;;;3.15;;
30299;SDS011;17110;52.602;12.998;2024-01-07T02:00:22;5.88;;;3.47;;
30299;SDS011;17110;52.602;12.998;2024-01-07T02:05:22;4.45;;;2.40;;
30299;SDS011;17110;52.602;12.998;2024-01-07T02:10:23;3.55;;;2.92;;
30299;SDS011;17110;52.602;12.998;2024-01-07T02:15:25;7.97;;;3.45;;
30299;SDS011;17110;52.602;12.998;2024-01-07T02:20:26;4.32;;;3.13;;
30299;SDS011;17110;52.602;12.998;2024-01-07T02:25:28;4.35;;;2.88;;
30299;SDS011;17110;52.602;12.998;2024-01-07T02:30:28;3.92;;;2.60;;
30299;SDS011;17110;52.602;12.998;2024-01-07T02:35:29;3.20;;;2.80;;
30299;SDS011;17110;52.602;12.998;2024-01-07T02:40:31;4.25;;;3.47;;
30299;SDS011;17110;52.602;12.998;2024-01-07T02:45:32;4.10;;;3.35;;
30299;SDS011;17110;52.602;12.998;2024-01-07T02:50:35;3.90;;;2.80;;
30299;SDS011;17110;52.602;12.998;2024-01-07T02:55:37;6.35;;;3.67;;
30299;SDS011;17110;52.602;12.998;2024-01-07T03:00:37;4.75;;;3.38;;
30299;SDS011;17110;52.602;12.998;2024-01-07T03:05:38;5.43;;;3.22;;
30299;SDS011;17110;52.602;12.998;2024-01-07T03:10:40;3.45;;;3.15;;
30299;SDS011;17110;52.602;12.998;2024-01-07T03:15:41;4.43;;;3.20;;
30299;SDS011;17110;52.602;12.998;2024-01-07T03:20:41;4.05;;;3.28;;
30299;SDS011;17110;52.602;12.998;2024-01-07T03:25:43;4.40;;;2.83;;
30299;SDS011;17110;52.602;12.998;2024-01-07T03:30:44;4.88;;;3.80;;
30299;SDS011;17110;52.602;12.998;2024-01-07T03:35:45;4.43;;;3.05;;
30299;SDS011;17110;52.602;12.998;2024-01-07T03:40:46;7.22;;;3.15;;
30299;SDS011;17110;52.602;12.998;2024-01-07T03:45:47;5.43;;;3.40;;
30299;SDS011;17110;52.602;12.998;2024-01-07T03:50:48;4.80;;;3.60;;
30299;SDS011;17110;52.602;12.998;2024-01-07T03:55:50;4.47;;;3.47;;
30299;SDS011;17110;52.602;12.998;2024-01-07T04:00:50;3.30;;;2.95;;
30299;SDS011;17110;52.602;12.998;2024-01-07T04:05:51;5.82;;;3.33;;
30299;SDS011;17110;52.602;12.998;2024-01-07T04:10:53;4.68;;;3.08;;
30299;SDS011;17110;52.602;12.998;2024-01-07T04:15:54;5.32;;;3.63;;
30299;SDS011;17110;52.602;12.998;2024-01-07T04:20:55;4.32;;;3.08;;
30299;SDS011;17110;52.602;12.998;2024-01-07T04:25:57;4.45;;;2.97;;
30299;SDS011;17110;52.602;12.998;2024-01-07T04:30:57;6.97;;;4.00;;
30299;SDS011;17110;52.602;12.998;2024-01-07T04:35:58;5.95;;;4.35;;
30299;SDS011;17110;52.602;12.998;2024-01-07T04:41:00;4.63;;;3.22;;
30299;SDS011;17110;52.602;12.998;2024-01-07T04:46:00;4.45;;;3.15;;
30299;SDS011;17110;52.602;12.998;2024-01-07T04:51:01;6.78;;;3.45;;
30299;SDS011;17110;52.602;12.998;2024-01-07T04:56:03;7.13;;;3.97;;
30299;SDS011;17110;52.602;12.998;2024-01-07T05:01:04;4.95;;;3.42;;
30299;SDS011;17110;52.602;12.998;2024-01-07T05:06:07;3.97;;;3.15;;
30299;SDS011;17110;52.602;12.998;2024-01-07T05:11:09;5.38;;;2.65;;
30299;SDS011;17110;52.602;12.998;2024-01-07T05:16:17;6.10;;;3.45;;
30299;SDS011;17110;52.602;12.998;2024-01-07T05:21:18;6.78;;;3.58;;
30299;SDS011;17110;52.602;12.998;2024-01-07T05:26:20;3.45;;;2.67;;
30299;SDS011;17110;52.602;12.998;2024-01-07T05:31:21;4.20;;;3.08;;
30299;SDS011;17110;52.602;12.998;2024-01-07T05:36:21;5.07;;;3.28;;
30299;SDS011;17110;52.602;12.998;2024-01-07T05:41:23;5.38;;;3.10;;
30299;SDS011;17110;52.602;12.998;2024-01-07T05:46:24;4.38;;;3.35;;
30299;SDS011;17110;52.602;12.998;2024-01-07T05:51:25;5.18;;;3.75;;
30299;SDS011;17110;52.602;12.998;2024-01-07T05:56:27;4.55;;;2.80;;
30299;SDS011;17110;52.602;12.998;2024-01-07T06:01:27;4.32;;;3.13;;
30299;SDS011;17110;52.602;12.998;2024-01-07T06:06:28;4.53;;;2.90;;
30299;SDS011;17110;52.602;12.998;2024-01-07T06:11:30;3.92;;;3.15;;
30299;SDS011;17110;52.602;12.998;2024-01-07T06:16:30;5.72;;;3.47;;
30299;SDS011;17110;52.602;12.998;2024-01-07T06:21:31;7.13;;;3.20;;
30299;SDS011;17110;52.602;12.998;2024-01-07T06:26:33;4.57;;;3.50;;
30299;SDS011;17110;52.602;12.998;2024-01-07T06:31:33;7.13;;;4.32;;
30299;SDS011;17110;52.602;12.998;2024-01-07T06:36:34;4.25;;;3.20;;
30299;SDS011;17110;52.602;12.998;2024-01-07T06:41:36;3.72;;;3.10;;
30299;SDS011;17110;52.602;12.998;2024-01-07T06:46:37;4.07;;;3.22;;
30299;SDS011;17110;52.602;12.998;2024-01-07T06:51:37;5.13;;;4.03;;
30299;SDS011;17110;52.602;12.998;2024-01-07T06:56:39;4.43;;;2.85;;
30299;SDS011;17110;52.602;12.998;2024-01-07T07:01:40;5.15;;;3.67;;
30299;SDS011;17110;52.602;12.998;2024-01-07T07:06:41;4.13;;;3.28;;
30299;SDS011;17110;52.602;12.998;2024-01-07T07:11:43;4.88;;;3.33;;
30299;SDS011;17110;52.602;12.998;2024-01-07T07:16:43;5.85;;;3.40;;
30299;SDS011;17110;52.602;12.998;2024-01-07T07:21:44;6.40;;;4.00;;
30299;SDS011;17110;52.602;12.998;2024-01-07T07:26:46;5.43;;;3.78;;
30299;SDS011;17110;52.602;12.998;2024-01-07T07:31:46;4.55;;;3.58;;
30299;SDS011;17110;52.602;12.998;2024-01-07T07:36:47;7.70;;;4.47;;
30299;SDS011;17110;52.602;12.998;2024-01-07T07:41:49;5.03;;;3.78;;
30299;SDS011;17110;52.602;12.998;2024-01-07T07:46:49;5.82;;;4.00;;
30299;SDS011;17110;52.602;12.998;2024-01-07T07:51:50;4.63;;;3.97;;
30299;SDS011;17110;52.602;12.998;2024-01-07T07:56:52;5.47;;;3.78;;
30299;SDS011;17110;52.602;12.998;2024-01-07T08:01:53;6.25;;;4.30;;
30299;SDS011;17110;52.602;12.998;2024-01-07T08:06:53;4.63;;;3.75;;
30299;SDS011;17110;52.602;12.998;2024-01-07T08:11:55;7.15;;;4.63;;
30299;SDS011;17110;52.602;12.998;2024-01-07T08:16:56;5.38;;;4.13;;
30299;SDS011;17110;52.602;12.998;2024-01-07T08:21:57;9.50;;;4.07;;
30299;SDS011;17110;52.602;12.998;2024-01-07T08:26:58;6.63;;;3.95;;
30299;SDS011;17110;52.602;12.998;2024-01-07T08:31:59;5.93;;;4.50;;
30299;SDS011;17110;52.602;12.998;2024-01-07T08:37:00;6.95;;;4.43;;
30299;SDS011;17110;52.602;12.998;2024-01-07T08:42:02;6.60;;;4.32;;
30299;SDS011;17110;52.602;12.998;2024-01-07T08:47:03;5.50;;;3.67;;
30299;SDS011;17110;52.602;12.998;2024-01-07T08:52:04;6.07;;;3.97;;
30299;SDS011;17110;52.602;12.998;2024-01-07T08:57:06;6.75;;;4.00;;
30299;SDS011;17110;52.602;12.998;2024-01-07T09:02:07;6.30;;;3.60;;
30299;SDS011;17110;52.602;12.998;2024-01-07T09:07:07;6.82;;;3.83;;
30299;SDS011;17110;52.602;12.998;2024-01-07T09:12:09;6.78;;;4.32;;
30299;SDS011;17110;52.602;12.998;2024-01-07T09:17:10;6.00;;;4.15;;
30299;SDS011;17110;52.602;12.998;2024-01-07T09:22:11;4.97;;;3.88;;
30299;SDS011;17110;52.602;12.998;2024-01-07T09:27:13;5.47;;;4.00;;
30299;SDS011;17110;52.602;12.998;2024-01-07T09:32:13;5.85;;;3.75;;
30299;SDS011;17110;52.602;12.998;2024-01-07T09:37:14;6.80;;;4.13;;
30299;SDS011;17110;52.602;12.998;2024-01-07T09:42:16;6.72;;;4.25;;
30299;SDS011;17110;52.602;12.998;2024-01-07T09:47:18;7.30;;;4.80;;
30299;SDS011;17110;52.602;12.998;2024-01-07T09:52:18;5.18;;;4.13;;
30299;SDS011;17110;52.602;12.998;2024-01-07T09:57:22;4.85;;;4.13;;
30299;SDS011;17110;52.602;12.998;2024-01-07T10:02:22;7.45;;;4.47;;
30299;SDS011;17110;52.602;12.998;2024-01-07T10:07:23;6.72;;;4.57;;
30299;SDS011;17110;52.602;12.998;2024-01-07T10:12:25;7.32;;;4.88;;
30299;SDS011;17110;52.602;12.998;2024-01-07T10:17:26;4.80;;;3.83;;
30299;SDS011;17110;52.602;12.998;2024-01-07T10:22:26;5.25;;;4.57;;
30299;SDS011;17110;52.602;12.998;2024-01-07T10:27:28;8.07;;;4.78;;
30299;SDS011;17110;52.602;12.998;2024-01-07T10:32:29;5.97;;;3.63;;
30299;SDS011;17110;52.602;12.998;2024-01-07T10:37:29;6.57;;;4.88;;
30299;SDS011;17110;52.602;12.998;2024-01-07T10:42:32;5.25;;;4.10;;
30299;SDS011;17110;52.602;12.998;2024-01-07T10:47:33;5.40;;;4.10;;
30299;SDS011;17110;52.602;12.998;2024-01-07T10:52:36;6.05;;;4.13;;
30299;SDS011;17110;52.602;12.998;2024-01-07T10:57:43;3.47;;;3.08;;
30299;SDS011;17110;52.602;12.998;2024-01-07T11:02:55;3.75;;;2.72;;
30299;SDS011;17110;52.602;12.998;2024-01-07T11:08:05;4.55;;;3.40;;
30299;SDS011;17110;52.602;12.998;2024-01-07T11:13:13;4.10;;;2.90;;
30299;SDS011;17110;52.602;12.998;2024-01-07T11:18:32;2.75;;;2.50;;
30299;SDS011;17110;52.602;12.998;2024-01-07T11:23:33;4.72;;;2.58;;
30299;SDS011;17110;52.602;12.998;2024-01-07T11:28:46;2.88;;;2.20;;
30299;SDS011;17110;52.602;12.998;2024-01-07T11:33:48;2.63;;;2.10;;
30299;SDS011;17110;52.602;12.998;2024-01-07T11:38:50;3.67;;;2.67;;
30299;SDS011;17110;52.602;12.998;2024-01-07T11:43:55;3.90;;;2.45;;
30299;SDS011;17110;52.602;12.998;2024-01-07T11:48:57;3.15;;;2.42;;
30299;SDS011;17110;52.602;12.998;2024-01-07T11:53:59;2.92;;;2.65;;
30299;SDS011;17110;52.602;12.998;2024-01-07T11:59:01;3.85;;;3.25;;
30299;SDS011;17110;52.602;12.998;2024-01-07T12:04:02;2.58;;;2.38;;
30299;SDS011;17110;52.602;12.998;2024-01-07T12:09:04;3.20;;;2.75;;
30299;SDS011;17110;52.602;12.998;2024-01-07T12:14:06;3.65;;;2.22;;
30299;SDS011;17110;52.602;12.998;2024-01-07T12:19:07;2.42;;;1.88;;
30299;SDS011;17110;52.602;12.998;2024-01-07T12:24:08;2.05;;;1.85;;
30299;SDS011;17110;52.602;12.998;2024-01-07T12:29:11;2.15;;;1.85;;
30299;SDS011;17110;52.602;12.998;2024-01-07T12:34:12;2.60;;;2.00;;
30299;SDS011;17110;52.602;12.998;2024-01-07T12:39:13;2.33;;;2.10;;
30299;SDS011;17110;52.602;12.998;2024-01-07T12:44:15;3.70;;;2.00;;
30299;SDS011;17110;52.602;12.998;2024-01-07T12:49:15;3.03;;;1.90;;
30299;SDS011;17110;52.602;12.998;2024-01-07T12:54:16;3.22;;;1.75;;
30299;SDS011;17110;52.602;12.998;2024-01-07T12:59:18;2.53;;;1.73;;
30299;SDS011;17110;52.602;12.998;2024-01-07T13:04:19;2.28;;;1.90;;
30299;SDS011;17110;52.602;12.998;2024-01-07T13:09:19;1.55;;;1.45;;
30299;SDS011;17110;52.602;12.998;2024-01-07T13:14:21;1.95;;;1.45;;
30299;SDS011;17110;52.602;12.998;2024-01-07T13:19:22;1.95;;;1.58;;
30299;SDS011;17110;52.602;12.998;2024-01-07T13:24:23;2.45;;;1.50;;
30299;SDS011;17110;52.602;12.998;2024-01-07T13:29:25;3.92;;;1.45;;
30299;SDS011;17110;52.602;12.998;2024-01-07T13:34:25;11.48;;;1.60;;
30299;SDS011;17110;52.602;12.998;2024-01-07T13:39:26;2.50;;;1.85;;
30299;SDS011;17110;52.602;12.998;2024-01-07T13:44:28;3.55;;;2.20;;
30299;SDS011;17110;52.602;12.998;2024-01-07T13:49:28;1.67;;;1.58;;
30299;SDS011;17110;52.602;12.998;2024-01-07T13:54:29;1.48;;;1.38;;
30299;SDS011;17110;52.602;12.998;2024-01-07T13:59:31;1.80;;;1.70;;
30299;SDS011;17110;52.602;12.998;2024-01-07T14:04:32;5.35;;;1.58;;
30299;SDS011;17110;52.602;12.998;2024-01-07T14:09:32;2.38;;;1.60;;
30299;SDS011;17110;52.602;12.998;2024-01-07T14:14:34;2.08;;;1.85;;
30299;SDS011;17110;52.602;12.998;2024-01-07T14:19:35;2.50;;;2.10;;
30299;SDS011;17110;52.602;12.998;2024-01-07T14:24:35;1.55;;;1.45;;
30299;SDS011;17110;52.602;12.998;2024-01-07T14:29:37;1.65;;;1.55;;
30299;SDS011;17110;52.602;12.998;2024-01-07T14:34:38;6.70;;;1.77;;
30299;SDS011;17110;52.602;12.998;2024-01-07T14:39:39;1.27;;;1.17;;
30299;SDS011;17110;52.602;12.998;2024-01-07T14:44:41;2.35;;;1.75;;
30299;SDS011;17110;52.602;12.998;2024-01-07T14:49:41;1.83;;;1.50;;
30299;SDS011;17110;52.602;12.998;2024-01-07T14:54:42;1.65;;;1.50;;
30299;SDS011;17110;52.602;12.998;2024-01-07T14:59:44;1.83;;;1.73;;
30299;SDS011;17110;52.602;12.998;2024-01-07T15:04:45;2.20;;;2.00;;
30299;SDS011;17110;52.602;12.998;2024-01-07T15:09:45;2.50;;;2.00;;
30299;SDS011;17110;52.602;12.998;2024-01-07T15:14:47;2.10;;;1.55;;
30299;SDS011;17110;52.602;12.998;2024-01-07T15:19:48;2.00;;;1.80;;
30299;SDS011;17110;52.602;12.998;2024-01-07T15:24:48;1.63;;;1.50;;
30299;SDS011;17110;52.602;12.998;2024-01-07T15:29:50;1.88;;;1.70;;
30299;SDS011;17110;52.602;12.998;2024-01-07T15:34:51;1.73;;;1.63;;
30299;SDS011;17110;52.602;12.998;2024-01-07T15:39:52;5.78;;;2.25;;
30299;SDS011;17110;52.602;12.998;2024-01-07T15:44:54;3.53;;;1.77;;
30299;SDS011;17110;52.602;12.998;2024-01-07T15:49:54;3.22;;;1.92;;
30299;SDS011;17110;52.602;12.998;2024-01-07T15:54:55;2.10;;;1.67;;
30299;SDS011;17110;52.602;12.998;2024-01-07T15:59:57;3.92;;;2.17;;
30299;SDS011;17110;52.602;12.998;2024-01-07T16:04:57;2.10;;;1.90;;
30299;SDS011;17110;52.602;12.998;2024-01-07T16:09:58;2.72;;;2.38;;
30299;SDS011;17110;52.602;12.998;2024-01-07T16:15:00;2.55;;;2.30;;
30299;SDS011;17110;52.602;12.998;2024-01-07T16:20:01;3.08;;;2.35;;
30299;SDS011;17110;52.602;12.998;2024-01-07T16:25:02;3.03;;;2.33;;
30299;SDS011;17110;52.602;12.998;2024-01-07T16:30:04;2.28;;;2.08;;
30299;SDS011;17110;52.602;12.998;2024-01-07T16:35:06;2.80;;;2.22;;
30299;SDS011;17110;52.602;12.998;2024-01-07T16:40:07;2.67;;;2.47;;
30299;SDS011;17110;52.602;12.998;2024-01-07T16:45:10;3.85;;;2.58;;
30299;SDS011;17110;52.602;12.998;2024-01-07T16:50:10;2.78;;;2.25;;
30299;SDS011;17110;52.602;12.998;2024-01-07T16:55:11;3.28;;;2.78;;
30299;SDS011;17110;52.602;12.998;2024-01-07T17:00:14;3.17;;;2.40;;
30299;SDS011;17110;52.602;12.998;2024-01-07T17:05:15;3.92;;;2.65;;
30299;SDS011;17110;52.602;12.998;2024-01-07T17:10:15;4.22;;;2.58;;
30299;SDS011;17110;52.602;12.998;2024-01-07T17:15:17;4.10;;;2.35;;
30299;SDS011;17110;52.602;12.998;2024-01-07T17:20:18;2.60;;;2.38;;
30299;SDS011;17110;52.602;12.998;2024-01-07T17:25:19;2.63;;;2.38;;
30299;SDS011;17110;52.602;12.998;2024-01-07T17:30:21;3.97;;;3.38;;
30299;SDS011;17110;52.602;12.998;2024-01-07T17:35:22;3.38;;;2.88;;
30299;SDS011;17110;52.602;12.998;2024-01-07T17:40:22;4.07;;;3.55;;
30299;SDS011;17110;52.602;12.998;2024-01-07T17:45:24;4.15;;;3.20;;
30299;SDS011;17110;52.602;12.998;2024-01-07T17:50:25;4.45;;;3.45;;
30299;SDS011;17110;52.602;12.998;2024-01-07T17:55:26;4.60;;;3.30;;
30299;SDS011;17110;52.602;12.998;2024-01-07T18:00:28;4.82;;;3.35;;
30299;SDS011;17110;52.602;12.998;2024-01-07T18:05:28;3.65;;;3.22;;
30299;SDS011;17110;52.602;12.998;2024-01-07T18:10:29;4.43;;;3.17;;
30299;SDS011;17110;52.602;12.998;2024-01-07T18:15:31;4.63;;;3.13;;
30299;SDS011;17110;52.602;12.998;2024-01-07T18:20:32;10.73;;;3.60;;
30299;SDS011;17110;52.602;12.998;2024-01-07T18:25:32;5.40;;;3.78;;
30299;SDS011;17110;52.602;12.998;2024-01-07T18:30:34;3.75;;;3.45;;
30299;SDS011;17110;52.602;12.998;2024-01-07T18:35:35;4.47;;;3.45;;
30299;SDS011;17110;52.602;12.998;2024-01-07T18:40:36;4.55;;;3.67;;
30299;SDS011;17110;52.602;12.998;2024-01-07T18:45:38;4.50;;;3.40;;
30299;SDS011;17110;52.602;12.998;2024-01-07T18:50:39;3.50;;;3.20;;
30299;SDS011;17110;52.602;12.998;2024-01-07T18:55:40;5.47;;;4.65;;
30299;SDS011;17110;52.602;12.998;2024-01-07T19:00:41;5.00;;;4.13;;
30299;SDS011;17110;52.602;12.998;2024-01-07T19:05:42;7.50;;;4.85;;
30299;SDS011;17110;52.602;12.998;2024-01-07T19:10:43;5.30;;;4.43;;
30299;SDS011;17110;52.602;12.998;2024-01-07T19:15:45;6.60;;;3.90;;
30299;SDS011;17110;52.602;12.998;2024-01-07T19:20:45;5.03;;;3.63;;
30299;SDS011;17110;52.602;12.998;2024-01-07T19:25:46;4.07;;;3.53;;
30299;SDS011;17110;52.602;12.998;2024-01-07T19:30:48;6.65;;;4.65;;
30299;SDS011;17110;52.602;12.998;2024-01-07T19:35:49;4.38;;;3.85;;
30299;SDS011;17110;52.602;12.998;2024-01-07T19:40:49;7.00;;;4.32;;
30299;SDS011;17110;52.602;12.998;2024-01-07T19:45:51;6.13;;;3.45;;
30299;SDS011;17110;52.602;12.998;2024-01-07T19:50:52;5.57;;;3.80;;
30299;SDS011;17110;52.602;12.998;2024-01-07T19:55:53;4.50;;;3.58;;
30299;SDS011;17110;52.602;12.998;2024-01-07T20:00:55;4.63;;;3.50;;
30299;SDS011;17110;52.602;12.998;2024-01-07T20:05:55;5.55;;;4.20;;
30299;SDS011;17110;52.602;12.998;2024-01-07T20:10:56;6.20;;;3.65;;
30299;SDS011;17110;52.602;12.998;2024-01-07T20:15:58;6.72;;;4.38;;
30299;SDS011;17110;52.602;12.998;2024-01-07T20:20:59;5.72;;;4.03;;
30299;SDS011;17110;52.602;12.998;2024-01-07T20:26:00;6.80;;;4.85;;
30299;SDS011;17110;52.602;12.998;2024-01-07T20:31:02;6.57;;;4.60;;
30299;SDS011;17110;52.602;12.998;2024-01-07T20:36:03;6.05;;;4.25;;
30299;SDS011;17110;52.602;12.998;2024-01-07T20:41:04;5.75;;;4.38;;
30299;SDS011;17110;52.602;12.998;2024-01-07T20:46:09;4.30;;;3.70;;
30299;SDS011;17110;52.602;12.998;2024-01-07T20:51:12;6.15;;;4.45;;
30299;SDS011;17110;52.602;12.998;2024-01-07T20:56:13;4.05;;;3.42;;
30299;SDS011;17110;52.602;12.998;2024-01-07T21:01:25;5.20;;;3.97;;
30299;SDS011;17110;52.602;12.998;2024-01-07T21:06:26;7.32;;;3.90;;
30299;SDS011;17110;52.602;12.998;2024-01-07T21:11:27;5.72;;;4.07;;
30299;SDS011;17110;52.602;12.998;2024-01-07T21:16:29;5.90;;;4.15;;
30299;SDS011;17110;52.602;12.998;2024-01-07T21:21:29;6.43;;;3.78;;
30299;SDS011;17110;52.602;12.998;2024-01-07T21:26:30;4.82;;;4.05;;
30299;SDS011;17110;52.602;12.998;2024-01-07T21:31:32;4.90;;;4.00;;
30299;SDS011;17110;52.602;12.998;2024-01-07T21:36:38;6.53;;;4.65;;
30299;SDS011;17110;52.602;12.998;2024-01-07T21:41:43;5.65;;;4.10;;
30299;SDS011;17110;52.602;12.998;2024-01-07T21:46:45;4.75;;;4.28;;
30299;SDS011;17110;52.602;12.998;2024-01-07T21:51:46;5.57;;;4.55;;
30299;SDS011;17110;52.602;12.998;2024-01-07T21:56:47;6.28;;;4.40;;
30299;SDS011;17110;52.602;12.998;2024-01-07T22:01:49;7.20;;;4.85;;
30299;SDS011;17110;52.602;12.998;2024-01-07T22:06:49;5.15;;;4.10;;
30299;SDS011;17110;52.602;12.998;2024-01-07T22:11:50;4.93;;;3.60;;
30299;SDS011;17110;52.602;12.998;2024-01-07T22:16:52;5.50;;;4.38;;
30299;SDS011;17110;52.602;12.998;2024-01-07T22:21:53;7.50;;;4.97;;
30299;SDS011;17110;52.602;12.998;2024-01-07T22:26:53;8.95;;;5.47;;
30299;SDS011;17110;52.602;12.998;2024-01-07T22:31:55;7.63;;;4.88;;
30299;SDS011;17110;52.602;12.998;2024-01-07T22:36:57;6.50;;;4.82;;
30299;SDS011;17110;52.602;12.998;2024-01-07T22:41:57;7.18;;;5.35;;
30299;SDS011;17110;52.602;12.998;2024-01-07T22:46:59;6.53;;;4.82;;
30299;SDS011;17110;52.602;12.998;2024-01-07T22:52:00;8.10;;;5.20;;
30299;SDS011;17110;52.602;12.998;2024-01-07T22:57:01;10.70;;;5.65;;
30299;SDS011;17110;52.602;12.998;2024-01-07T23:02:03;7.30;;;5.35;;
30299;SDS011;17110;52.602;12.998;2024-01-07T23:07:04;9.50;;;5.53;;
30299;SDS011;17110;52.602;12.998;2024-01-07T23:12:04;6.55;;;5.53;;
30299;SDS011;17110;52.602;12.998;2024-01-07T23:17:07;7.30;;;5.22;;
30299;SDS011;17110;52.602;12.998;2024-01-07T23:22:08;7.38;;;5.55;;
30299;SDS011;17110;52.602;12.998;2024-01-07T23:27:08;7.93;;;5.82;;
30299;SDS011;17110;52.602;12.998;2024-01-07T23:32:10;10.30;;;6.03;;
30299;SDS011;17110;52.602;12.998;2024-01-07T23:37:11;9.85;;;6.25;;
30299;SDS011;17110;52.602;12.998;2024-01-07T23:42:11;12.57;;;6.60;;
30299;SDS011;17110;52.602;12.998;2024-01-07T23:47:13;8.73;;;5.63;;
30299;SDS011;17110;52.602;12.998;2024-01-07T23:52:14;7.72;;;5.93;;
30299;SDS011;17110;52.602;12.998;2024-01-07T23:57:15;9.07;;;6.53;;
